sensor_id;sensor_type;location;lat;lon;timestamp;temperature;humidity
31695;DHT22;18289;51.330;4.946;2022-12-07T00:00:02;5.00;99.90
31695;DHT22;18289;51.330;4.946;2022-12-07T00:02:28;5.00;99.90
31695;DHT22;18289;51.330;4.946;2022-12-07T00:04:54;5.10;99.90
31695;DHT22;18289;51.330;4.946;2022-12-07T00:07:19;5.00;99.90
31695;DHT22;18289;51.330;4.946;2022-12-07T00:09:45;5.10;99.90
31695;DHT22;18289;51.330;4.946;2022-12-07T00:12:11;5.10;99.90
31695;DHT22;18289;51.330;4.946;2022-12-07T00:14:36;5.10;99.90
31695;DHT22;18289;51.330;4.946;2022-12-07T00:17:02;5.10;99.90
31695;DHT22;18289;51.330;4.946;2022-12-07T00:19:28;5.10;99.90
31695;DHT22;18289;51.330;4.946;2022-12-07T00:21:53;5.20;99.90
31695;DHT22;18289;51.330;4.946;2022-12-07T00:24:19;5.10;99.90
31695;DHT22;18289;51.330;4.946;2022-12-07T00:26:45;5.20;99.90
31695;DHT22;18289;51.330;4.946;2022-12-07T00:29:19;5.20;99.90
31695;DHT22;18289;51.330;4.946;2022-12-07T00:31:45;5.20;99.90
31695;DHT22;18289;51.330;4.946;2022-12-07T00:34:17;5.30;99.90
31695;DHT22;18289;51.330;4.946;2022-12-07T00:36:43;5.30;99.90
31695;DHT22;18289;51.330;4.946;2022-12-07T00:39:08;5.30;99.90
31695;DHT22;18289;51.330;4.946;2022-12-07T00:41:34;5.40;99.90
31695;DHT22;18289;51.330;4.946;2022-12-07T00:44:00;5.50;99.90
31695;DHT22;18289;51.330;4.946;2022-12-07T00:46:26;5.40;99.90
31695;DHT22;18289;51.330;4.946;2022-12-07T00:48:53;5.40;99.90
31695;DHT22;18289;51.330;4.946;2022-12-07T00:51:22;5.30;99.90
31695;DHT22;18289;51.330;4.946;2022-12-07T00:53:48;5.30;99.90
31695;DHT22;18289;51.330;4.946;2022-12-07T00:56:20;5.30;99.90
31695;DHT22;18289;51.330;4.946;2022-12-07T00:58:56;5.30;99.90
31695;DHT22;18289;51.330;4.946;2022-12-07T01:01:23;5.20;99.90
31695;DHT22;18289;51.330;4.946;2022-12-07T01:03:49;5.10;99.90
31695;DHT22;18289;51.330;4.946;2022-12-07T01:06:16;5.10;99.90
31695;DHT22;18289;51.330;4.946;2022-12-07T01:08:42;5.20;99.90
31695;DHT22;18289;51.330;4.946;2022-12-07T01:11:12;5.20;99.90
31695;DHT22;18289;51.330;4.946;2022-12-07T01:13:38;5.20;99.90
31695;DHT22;18289;51.330;4.946;2022-12-07T01:16:05;5.30;99.90
31695;DHT22;18289;51.330;4.946;2022-12-07T01:18:34;5.40;99.90
31695;DHT22;18289;51.330;4.946;2022-12-07T01:21:11;5.40;99.90
31695;DHT22;18289;51.330;4.946;2022-12-07T01:23:37;5.40;99.90
31695;DHT22;18289;51.330;4.946;2022-12-07T01:26:06;5.50;99.90
31695;DHT22;18289;51.330;4.946;2022-12-07T01:28:32;5.50;99.90
31695;DHT22;18289;51.330;4.946;2022-12-07T01:31:03;5.60;99.90
31695;DHT22;18289;51.330;4.946;2022-12-07T01:33:31;5.60;99.90
31695;DHT22;18289;51.330;4.946;2022-12-07T01:36:06;5.60;99.90
31695;DHT22;18289;51.330;4.946;2022-12-07T01:38:32;5.60;99.90
31695;DHT22;18289;51.330;4.946;2022-12-07T01:40:59;5.70;99.90
31695;DHT22;18289;51.330;4.946;2022-12-07T01:43:27;5.70;99.90
31695;DHT22;18289;51.330;4.946;2022-12-07T01:45:53;5.70;99.90
31695;DHT22;18289;51.330;4.946;2022-12-07T01:48:40;5.70;99.90
31695;DHT22;18289;51.330;4.946;2022-12-07T01:51:10;5.70;99.90
31695;DHT22;18289;51.330;4.946;2022-12-07T01:53:39;5.70;99.90
31695;DHT22;18289;51.330;4.946;2022-12-07T01:56:08;5.60;99.90
31695;DHT22;18289;51.330;4.946;2022-12-07T01:58:35;5.60;99.90
31695;DHT22;18289;51.330;4.946;2022-12-07T02:01:01;5.70;99.90
31695;DHT22;18289;51.330;4.946;2022-12-07T02:03:45;5.60;99.90
31695;DHT22;18289;51.330;4.946;2022-12-07T02:06:17;5.60;99.90
31695;DHT22;18289;51.330;4.946;2022-12-07T02:08:44;5.70;99.90
31695;DHT22;18289;51.330;4.946;2022-12-07T02:11:10;5.70;99.90
31695;DHT22;18289;51.330;4.946;2022-12-07T02:13:38;5.70;99.90
31695;DHT22;18289;51.330;4.946;2022-12-07T02:30:03;5.60;99.90
31695;DHT22;18289;51.330;4.946;2022-12-07T02:35:09;5.60;99.90
31695;DHT22;18289;51.330;4.946;2022-12-07T02:40:38;5.60;99.90
31695;DHT22;18289;51.330;4.946;2022-12-07T02:43:22;5.50;99.90
31695;DHT22;18289;51.330;4.946;2022-12-07T02:45:51;5.60;99.90
31695;DHT22;18289;51.330;4.946;2022-12-07T02:48:18;5.60;99.90
31695;DHT22;18289;51.330;4.946;2022-12-07T02:50:50;5.50;99.90
31695;DHT22;18289;51.330;4.946;2022-12-07T02:53:36;5.50;99.90
31695;DHT22;18289;51.330;4.946;2022-12-07T02:56:07;5.50;99.90
31695;DHT22;18289;51.330;4.946;2022-12-07T03:04:07;5.30;99.90
31695;DHT22;18289;51.330;4.946;2022-12-07T03:06:42;5.30;99.90
31695;DHT22;18289;51.330;4.946;2022-12-07T03:09:19;5.30;99.90
31695;DHT22;18289;51.330;4.946;2022-12-07T03:11:52;5.30;99.90
31695;DHT22;18289;51.330;4.946;2022-12-07T03:14:22;5.20;99.90
31695;DHT22;18289;51.330;4.946;2022-12-07T03:19:26;5.00;99.90
31695;DHT22;18289;51.330;4.946;2022-12-07T03:22:13;5.10;99.90
31695;DHT22;18289;51.330;4.946;2022-12-07T03:24:50;4.90;99.90
31695;DHT22;18289;51.330;4.946;2022-12-07T03:27:34;4.80;99.90
31695;DHT22;18289;51.330;4.946;2022-12-07T03:30:04;4.70;99.90
31695;DHT22;18289;51.330;4.946;2022-12-07T03:32:42;4.60;99.90
31695;DHT22;18289;51.330;4.946;2022-12-07T03:35:26;4.50;99.90
31695;DHT22;18289;51.330;4.946;2022-12-07T03:38:00;4.40;99.90
31695;DHT22;18289;51.330;4.946;2022-12-07T03:40:40;4.50;99.90
31695;DHT22;18289;51.330;4.946;2022-12-07T03:43:09;4.40;99.90
31695;DHT22;18289;51.330;4.946;2022-12-07T03:48:40;4.40;99.90
31695;DHT22;18289;51.330;4.946;2022-12-07T03:51:25;4.40;99.90
31695;DHT22;18289;51.330;4.946;2022-12-07T03:53:58;4.30;99.90
31695;DHT22;18289;51.330;4.946;2022-12-07T03:56:26;4.30;99.90
31695;DHT22;18289;51.330;4.946;2022-12-07T03:58:54;4.40;99.90
31695;DHT22;18289;51.330;4.946;2022-12-07T04:01:19;4.40;99.90
31695;DHT22;18289;51.330;4.946;2022-12-07T04:03:45;4.40;99.90
31695;DHT22;18289;51.330;4.946;2022-12-07T04:06:11;4.60;99.90
31695;DHT22;18289;51.330;4.946;2022-12-07T04:08:37;4.60;99.90
31695;DHT22;18289;51.330;4.946;2022-12-07T04:11:02;4.60;99.90
31695;DHT22;18289;51.330;4.946;2022-12-07T04:13:28;4.60;99.90
31695;DHT22;18289;51.330;4.946;2022-12-07T04:15:54;4.60;99.90
31695;DHT22;18289;51.330;4.946;2022-12-07T04:18:19;4.60;99.90
31695;DHT22;18289;51.330;4.946;2022-12-07T04:20:45;4.60;99.90
31695;DHT22;18289;51.330;4.946;2022-12-07T04:23:11;4.60;99.90
31695;DHT22;18289;51.330;4.946;2022-12-07T04:25:37;4.70;99.90
31695;DHT22;18289;51.330;4.946;2022-12-07T04:28:03;4.70;99.90
31695;DHT22;18289;51.330;4.946;2022-12-07T04:30:28;4.70;99.90
31695;DHT22;18289;51.330;4.946;2022-12-07T04:32:54;4.60;99.90
31695;DHT22;18289;51.330;4.946;2022-12-07T04:35:20;4.60;99.90
31695;DHT22;18289;51.330;4.946;2022-12-07T04:37:46;4.60;99.90
31695;DHT22;18289;51.330;4.946;2022-12-07T04:40:13;4.70;99.90
31695;DHT22;18289;51.330;4.946;2022-12-07T04:42:39;4.70;99.90
31695;DHT22;18289;51.330;4.946;2022-12-07T04:45:05;4.60;99.90
31695;DHT22;18289;51.330;4.946;2022-12-07T04:47:31;4.70;99.90
31695;DHT22;18289;51.330;4.946;2022-12-07T04:49:57;4.60;99.90
31695;DHT22;18289;51.330;4.946;2022-12-07T04:52:23;4.60;99.90
31695;DHT22;18289;51.330;4.946;2022-12-07T04:54:48;4.60;99.90
31695;DHT22;18289;51.330;4.946;2022-12-07T04:57:14;4.50;99.90
31695;DHT22;18289;51.330;4.946;2022-12-07T04:59:40;4.50;99.90
31695;DHT22;18289;51.330;4.946;2022-12-07T05:02:05;4.60;99.90
31695;DHT22;18289;51.330;4.946;2022-12-07T05:04:31;4.60;99.90
31695;DHT22;18289;51.330;4.946;2022-12-07T05:06:57;4.60;99.90
31695;DHT22;18289;51.330;4.946;2022-12-07T05:09:22;4.60;99.90
31695;DHT22;18289;51.330;4.946;2022-12-07T05:11:48;4.60;99.90
31695;DHT22;18289;51.330;4.946;2022-12-07T05:14:19;4.50;99.90
31695;DHT22;18289;51.330;4.946;2022-12-07T05:16:47;4.40;99.90
31695;DHT22;18289;51.330;4.946;2022-12-07T05:19:13;4.30;99.90
31695;DHT22;18289;51.330;4.946;2022-12-07T05:21:39;4.30;99.90
31695;DHT22;18289;51.330;4.946;2022-12-07T05:24:06;4.30;99.90
31695;DHT22;18289;51.330;4.946;2022-12-07T05:26:32;4.30;99.90
31695;DHT22;18289;51.330;4.946;2022-12-07T05:28:58;4.20;99.90
31695;DHT22;18289;51.330;4.946;2022-12-07T05:31:25;4.20;99.90
31695;DHT22;18289;51.330;4.946;2022-12-07T05:33:51;4.20;99.90
31695;DHT22;18289;51.330;4.946;2022-12-07T05:36:17;4.20;99.90
31695;DHT22;18289;51.330;4.946;2022-12-07T05:38:42;4.10;99.90
31695;DHT22;18289;51.330;4.946;2022-12-07T05:41:09;4.00;99.90
31695;DHT22;18289;51.330;4.946;2022-12-07T05:43:57;4.00;99.90
31695;DHT22;18289;51.330;4.946;2022-12-07T05:46:23;4.00;99.90
31695;DHT22;18289;51.330;4.946;2022-12-07T05:48:48;3.90;99.90
31695;DHT22;18289;51.330;4.946;2022-12-07T05:51:14;3.80;99.90
31695;DHT22;18289;51.330;4.946;2022-12-07T05:53:40;3.80;99.90
31695;DHT22;18289;51.330;4.946;2022-12-07T05:56:06;3.80;99.90
31695;DHT22;18289;51.330;4.946;2022-12-07T05:58:32;3.70;99.90
31695;DHT22;18289;51.330;4.946;2022-12-07T06:01:16;3.70;99.90
31695;DHT22;18289;51.330;4.946;2022-12-07T06:03:41;3.60;99.90
31695;DHT22;18289;51.330;4.946;2022-12-07T06:06:07;3.50;99.90
31695;DHT22;18289;51.330;4.946;2022-12-07T06:08:32;3.50;99.90
31695;DHT22;18289;51.330;4.946;2022-12-07T06:10:58;3.50;99.90
31695;DHT22;18289;51.330;4.946;2022-12-07T06:13:42;3.50;99.90
31695;DHT22;18289;51.330;4.946;2022-12-07T06:16:08;3.40;99.90
31695;DHT22;18289;51.330;4.946;2022-12-07T06:18:33;3.50;99.90
31695;DHT22;18289;51.330;4.946;2022-12-07T06:20:59;3.30;99.90
31695;DHT22;18289;51.330;4.946;2022-12-07T06:23:25;3.20;99.90
31695;DHT22;18289;51.330;4.946;2022-12-07T06:25:50;3.20;99.90
31695;DHT22;18289;51.330;4.946;2022-12-07T06:28:16;3.20;99.90
31695;DHT22;18289;51.330;4.946;2022-12-07T06:30:42;3.20;99.90
31695;DHT22;18289;51.330;4.946;2022-12-07T06:33:07;3.20;99.90
31695;DHT22;18289;51.330;4.946;2022-12-07T06:35:33;3.10;99.90
31695;DHT22;18289;51.330;4.946;2022-12-07T06:37:59;3.10;99.90
31695;DHT22;18289;51.330;4.946;2022-12-07T06:40:25;3.20;99.90
31695;DHT22;18289;51.330;4.946;2022-12-07T06:42:50;3.00;99.90
31695;DHT22;18289;51.330;4.946;2022-12-07T06:45:16;3.00;99.90
31695;DHT22;18289;51.330;4.946;2022-12-07T06:47:42;3.00;99.90
31695;DHT22;18289;51.330;4.946;2022-12-07T06:50:08;2.90;99.90
31695;DHT22;18289;51.330;4.946;2022-12-07T06:52:34;2.90;99.90
31695;DHT22;18289;51.330;4.946;2022-12-07T06:54:59;3.00;99.90
31695;DHT22;18289;51.330;4.946;2022-12-07T06:57:26;3.10;99.90
31695;DHT22;18289;51.330;4.946;2022-12-07T06:59:51;3.00;99.90
31695;DHT22;18289;51.330;4.946;2022-12-07T07:02:17;3.00;99.90
31695;DHT22;18289;51.330;4.946;2022-12-07T07:04:43;2.90;99.90
31695;DHT22;18289;51.330;4.946;2022-12-07T07:07:09;3.00;99.90
31695;DHT22;18289;51.330;4.946;2022-12-07T07:09:35;3.00;99.90
31695;DHT22;18289;51.330;4.946;2022-12-07T07:12:00;3.10;99.90
31695;DHT22;18289;51.330;4.946;2022-12-07T07:14:26;3.10;99.90
31695;DHT22;18289;51.330;4.946;2022-12-07T07:16:52;2.90;99.90
31695;DHT22;18289;51.330;4.946;2022-12-07T07:19:18;2.90;99.90
31695;DHT22;18289;51.330;4.946;2022-12-07T07:21:44;2.80;99.90
31695;DHT22;18289;51.330;4.946;2022-12-07T07:24:09;2.80;99.90
31695;DHT22;18289;51.330;4.946;2022-12-07T07:26:35;2.80;99.90
31695;DHT22;18289;51.330;4.946;2022-12-07T07:29:01;2.90;99.90
31695;DHT22;18289;51.330;4.946;2022-12-07T07:31:27;2.80;99.90
31695;DHT22;18289;51.330;4.946;2022-12-07T07:33:53;2.90;99.90
31695;DHT22;18289;51.330;4.946;2022-12-07T07:36:18;2.90;99.90
31695;DHT22;18289;51.330;4.946;2022-12-07T07:38:44;3.00;99.90
31695;DHT22;18289;51.330;4.946;2022-12-07T07:41:09;3.20;99.90
31695;DHT22;18289;51.330;4.946;2022-12-07T07:43:35;3.20;99.90
31695;DHT22;18289;51.330;4.946;2022-12-07T07:46:01;3.30;99.90
31695;DHT22;18289;51.330;4.946;2022-12-07T07:48:26;3.40;99.90
31695;DHT22;18289;51.330;4.946;2022-12-07T07:50:52;3.50;99.90
31695;DHT22;18289;51.330;4.946;2022-12-07T07:53:18;3.40;99.90
31695;DHT22;18289;51.330;4.946;2022-12-07T07:55:51;3.60;99.90
31695;DHT22;18289;51.330;4.946;2022-12-07T07:58:17;3.60;99.90
31695;DHT22;18289;51.330;4.946;2022-12-07T08:00:43;3.50;99.90
31695;DHT22;18289;51.330;4.946;2022-12-07T08:03:09;3.50;99.90
31695;DHT22;18289;51.330;4.946;2022-12-07T08:05:36;3.50;99.90
31695;DHT22;18289;51.330;4.946;2022-12-07T08:08:02;3.40;99.90
31695;DHT22;18289;51.330;4.946;2022-12-07T08:10:28;3.50;99.90
31695;DHT22;18289;51.330;4.946;2022-12-07T08:12:54;3.50;99.90
31695;DHT22;18289;51.330;4.946;2022-12-07T08:15:40;3.60;99.90
31695;DHT22;18289;51.330;4.946;2022-12-07T08:18:07;3.50;99.90
31695;DHT22;18289;51.330;4.946;2022-12-07T08:20:33;3.50;99.90
31695;DHT22;18289;51.330;4.946;2022-12-07T08:22:59;3.60;99.90
31695;DHT22;18289;51.330;4.946;2022-12-07T08:25:26;3.80;99.90
31695;DHT22;18289;51.330;4.946;2022-12-07T08:27:52;3.90;99.90
31695;DHT22;18289;51.330;4.946;2022-12-07T08:30:18;4.10;99.90
31695;DHT22;18289;51.330;4.946;2022-12-07T08:35:48;4.10;99.90
31695;DHT22;18289;51.330;4.946;2022-12-07T08:38:14;4.10;99.90
31695;DHT22;18289;51.330;4.946;2022-12-07T08:40:39;4.20;99.90
31695;DHT22;18289;51.330;4.946;2022-12-07T08:43:05;4.20;99.90
31695;DHT22;18289;51.330;4.946;2022-12-07T08:45:31;4.30;99.90
31695;DHT22;18289;51.330;4.946;2022-12-07T08:48:07;4.30;99.90
31695;DHT22;18289;51.330;4.946;2022-12-07T08:50:34;4.50;99.90
31695;DHT22;18289;51.330;4.946;2022-12-07T08:53:02;4.60;99.90
31695;DHT22;18289;51.330;4.946;2022-12-07T08:55:29;4.70;99.90
31695;DHT22;18289;51.330;4.946;2022-12-07T08:57:58;4.70;99.90
31695;DHT22;18289;51.330;4.946;2022-12-07T09:00:24;4.70;99.90
31695;DHT22;18289;51.330;4.946;2022-12-07T09:02:51;4.70;99.90
31695;DHT22;18289;51.330;4.946;2022-12-07T09:05:17;4.90;99.90
31695;DHT22;18289;51.330;4.946;2022-12-07T09:07:48;5.00;99.90
31695;DHT22;18289;51.330;4.946;2022-12-07T09:10:17;5.00;99.90
31695;DHT22;18289;51.330;4.946;2022-12-07T09:12:43;5.10;99.90
31695;DHT22;18289;51.330;4.946;2022-12-07T09:15:08;5.20;99.90
31695;DHT22;18289;51.330;4.946;2022-12-07T09:17:35;5.30;99.90
31695;DHT22;18289;51.330;4.946;2022-12-07T09:20:03;5.30;99.90
31695;DHT22;18289;51.330;4.946;2022-12-07T09:22:30;5.20;99.90
31695;DHT22;18289;51.330;4.946;2022-12-07T09:24:57;5.20;99.90
31695;DHT22;18289;51.330;4.946;2022-12-07T09:27:23;5.20;99.90
31695;DHT22;18289;51.330;4.946;2022-12-07T09:29:49;5.30;99.90
31695;DHT22;18289;51.330;4.946;2022-12-07T09:32:14;5.50;99.90
31695;DHT22;18289;51.330;4.946;2022-12-07T09:34:40;5.40;99.90
31695;DHT22;18289;51.330;4.946;2022-12-07T09:37:06;5.50;99.90
31695;DHT22;18289;51.330;4.946;2022-12-07T09:39:32;5.50;99.90
31695;DHT22;18289;51.330;4.946;2022-12-07T09:41:58;5.40;99.90
31695;DHT22;18289;51.330;4.946;2022-12-07T09:44:26;5.40;99.90
31695;DHT22;18289;51.330;4.946;2022-12-07T09:46:52;5.30;99.90
31695;DHT22;18289;51.330;4.946;2022-12-07T09:49:23;5.50;99.90
31695;DHT22;18289;51.330;4.946;2022-12-07T09:54:45;5.80;99.90
31695;DHT22;18289;51.330;4.946;2022-12-07T09:57:11;6.00;99.90
31695;DHT22;18289;51.330;4.946;2022-12-07T09:59:38;6.20;99.90
31695;DHT22;18289;51.330;4.946;2022-12-07T10:02:24;6.80;99.90
31695;DHT22;18289;51.330;4.946;2022-12-07T10:04:50;7.60;99.90
31695;DHT22;18289;51.330;4.946;2022-12-07T10:07:16;8.00;99.90
31695;DHT22;18289;51.330;4.946;2022-12-07T10:09:42;8.30;99.90
31695;DHT22;18289;51.330;4.946;2022-12-07T10:12:12;8.20;99.90
31695;DHT22;18289;51.330;4.946;2022-12-07T10:14:53;8.10;99.90
31695;DHT22;18289;51.330;4.946;2022-12-07T10:17:36;8.30;99.90
31695;DHT22;18289;51.330;4.946;2022-12-07T10:23:03;8.30;99.90
31695;DHT22;18289;51.330;4.946;2022-12-07T10:25:35;8.30;99.90
31695;DHT22;18289;51.330;4.946;2022-12-07T10:33:36;7.80;99.90
31695;DHT22;18289;51.330;4.946;2022-12-07T10:36:34;7.60;99.90
31695;DHT22;18289;51.330;4.946;2022-12-07T10:39:11;7.50;99.90
31695;DHT22;18289;51.330;4.946;2022-12-07T10:42:01;7.30;99.90
31695;DHT22;18289;51.330;4.946;2022-12-07T10:44:28;7.30;99.90
31695;DHT22;18289;51.330;4.946;2022-12-07T10:52:15;7.40;99.90
31695;DHT22;18289;51.330;4.946;2022-12-07T10:55:08;7.50;99.90
31695;DHT22;18289;51.330;4.946;2022-12-07T11:14:18;8.40;99.90
31695;DHT22;18289;51.330;4.946;2022-12-07T11:16:57;8.40;99.90
31695;DHT22;18289;51.330;4.946;2022-12-07T11:19:53;8.20;99.90
31695;DHT22;18289;51.330;4.946;2022-12-07T11:30:58;8.00;99.90
31695;DHT22;18289;51.330;4.946;2022-12-07T11:36:41;8.10;99.90
31695;DHT22;18289;51.330;4.946;2022-12-07T11:39:26;8.00;99.90
31695;DHT22;18289;51.330;4.946;2022-12-07T11:42:03;7.80;99.90
31695;DHT22;18289;51.330;4.946;2022-12-07T11:44:45;7.80;99.90
31695;DHT22;18289;51.330;4.946;2022-12-07T11:47:34;7.60;99.90
31695;DHT22;18289;51.330;4.946;2022-12-07T11:52:51;7.30;99.90
31695;DHT22;18289;51.330;4.946;2022-12-07T12:06:38;7.30;99.90
31695;DHT22;18289;51.330;4.946;2022-12-07T12:09:23;7.50;99.90
31695;DHT22;18289;51.330;4.946;2022-12-07T12:17:30;8.30;99.90
31695;DHT22;18289;51.330;4.946;2022-12-07T12:20:21;8.70;99.90
31695;DHT22;18289;51.330;4.946;2022-12-07T12:26:02;10.00;99.90
31695;DHT22;18289;51.330;4.946;2022-12-07T12:28:37;10.10;99.90
31695;DHT22;18289;51.330;4.946;2022-12-07T12:33:48;9.50;99.90
31695;DHT22;18289;51.330;4.946;2022-12-07T12:46:50;9.00;99.90
31695;DHT22;18289;51.330;4.946;2022-12-07T12:51:52;8.90;99.90
31695;DHT22;18289;51.330;4.946;2022-12-07T12:57:03;8.80;99.90
31695;DHT22;18289;51.330;4.946;2022-12-07T13:04:53;8.60;99.90
31695;DHT22;18289;51.330;4.946;2022-12-07T13:10:44;8.60;99.90
31695;DHT22;18289;51.330;4.946;2022-12-07T13:15:50;8.60;99.90
31695;DHT22;18289;51.330;4.946;2022-12-07T13:18:37;8.60;99.90
31695;DHT22;18289;51.330;4.946;2022-12-07T13:26:38;8.50;99.90
31695;DHT22;18289;51.330;4.946;2022-12-07T13:29:12;8.60;99.90
31695;DHT22;18289;51.330;4.946;2022-12-07T13:31:49;8.40;99.90
31695;DHT22;18289;51.330;4.946;2022-12-07T13:34:36;8.50;99.90
31695;DHT22;18289;51.330;4.946;2022-12-07T13:37:10;8.70;99.90
31695;DHT22;18289;51.330;4.946;2022-12-07T13:39:46;8.70;99.90
31695;DHT22;18289;51.330;4.946;2022-12-07T13:42:28;8.80;99.90
31695;DHT22;18289;51.330;4.946;2022-12-07T13:44:54;8.80;99.90
31695;DHT22;18289;51.330;4.946;2022-12-07T13:47:43;8.70;99.90
31695;DHT22;18289;51.330;4.946;2022-12-07T13:50:28;8.80;99.90
31695;DHT22;18289;51.330;4.946;2022-12-07T13:52:59;8.80;99.90
31695;DHT22;18289;51.330;4.946;2022-12-07T13:55:26;8.80;99.90
31695;DHT22;18289;51.330;4.946;2022-12-07T13:57:53;8.70;99.90
31695;DHT22;18289;51.330;4.946;2022-12-07T14:00:26;8.50;99.90
31695;DHT22;18289;51.330;4.946;2022-12-07T14:05:38;8.20;99.90
31695;DHT22;18289;51.330;4.946;2022-12-07T14:13:27;8.00;99.90
31695;DHT22;18289;51.330;4.946;2022-12-07T14:15:54;8.00;99.90
31695;DHT22;18289;51.330;4.946;2022-12-07T14:21:16;8.10;99.90
31695;DHT22;18289;51.330;4.946;2022-12-07T14:24:04;8.20;99.90
31695;DHT22;18289;51.330;4.946;2022-12-07T14:26:33;8.20;99.90
31695;DHT22;18289;51.330;4.946;2022-12-07T14:31:56;8.30;99.90
31695;DHT22;18289;51.330;4.946;2022-12-07T14:34:23;8.40;99.90
31695;DHT22;18289;51.330;4.946;2022-12-07T14:36:49;8.40;99.90
31695;DHT22;18289;51.330;4.946;2022-12-07T14:39:14;8.30;99.90
31695;DHT22;18289;51.330;4.946;2022-12-07T14:41:40;8.20;99.90
31695;DHT22;18289;51.330;4.946;2022-12-07T14:44:22;8.20;99.90
31695;DHT22;18289;51.330;4.946;2022-12-07T14:46:49;8.10;99.90
31695;DHT22;18289;51.330;4.946;2022-12-07T14:49:15;7.90;99.90
31695;DHT22;18289;51.330;4.946;2022-12-07T14:51:42;7.80;99.90
31695;DHT22;18289;51.330;4.946;2022-12-07T14:54:18;7.60;99.90
31695;DHT22;18289;51.330;4.946;2022-12-07T14:56:45;7.50;99.90
31695;DHT22;18289;51.330;4.946;2022-12-07T14:59:11;7.40;99.90
31695;DHT22;18289;51.330;4.946;2022-12-07T15:01:38;7.30;99.90
31695;DHT22;18289;51.330;4.946;2022-12-07T15:04:03;7.20;99.90
31695;DHT22;18289;51.330;4.946;2022-12-07T15:06:29;7.10;99.90
31695;DHT22;18289;51.330;4.946;2022-12-07T15:08:55;6.90;99.90
31695;DHT22;18289;51.330;4.946;2022-12-07T15:11:21;7.00;99.90
31695;DHT22;18289;51.330;4.946;2022-12-07T15:13:46;7.00;99.90
31695;DHT22;18289;51.330;4.946;2022-12-07T15:16:31;7.00;99.90
31695;DHT22;18289;51.330;4.946;2022-12-07T15:18:57;7.00;99.90
31695;DHT22;18289;51.330;4.946;2022-12-07T15:21:22;6.90;99.90
31695;DHT22;18289;51.330;4.946;2022-12-07T15:23:48;6.90;99.90
31695;DHT22;18289;51.330;4.946;2022-12-07T15:26:14;6.90;99.90
31695;DHT22;18289;51.330;4.946;2022-12-07T15:28:40;6.80;99.90
31695;DHT22;18289;51.330;4.946;2022-12-07T15:31:13;6.70;99.90
31695;DHT22;18289;51.330;4.946;2022-12-07T15:33:39;6.60;99.90
31695;DHT22;18289;51.330;4.946;2022-12-07T15:36:05;6.50;99.90
31695;DHT22;18289;51.330;4.946;2022-12-07T15:38:31;6.40;99.90
31695;DHT22;18289;51.330;4.946;2022-12-07T15:40:57;6.30;99.90
31695;DHT22;18289;51.330;4.946;2022-12-07T15:43:23;6.20;99.90
31695;DHT22;18289;51.330;4.946;2022-12-07T15:46:07;6.10;99.90
31695;DHT22;18289;51.330;4.946;2022-12-07T15:48:33;6.00;99.90
31695;DHT22;18289;51.330;4.946;2022-12-07T15:51:07;5.90;99.90
31695;DHT22;18289;51.330;4.946;2022-12-07T15:53:33;5.80;99.90
31695;DHT22;18289;51.330;4.946;2022-12-07T15:55:59;5.70;99.90
31695;DHT22;18289;51.330;4.946;2022-12-07T15:58:25;5.60;99.90
31695;DHT22;18289;51.330;4.946;2022-12-07T16:00:51;5.70;99.90
31695;DHT22;18289;51.330;4.946;2022-12-07T16:03:17;5.60;99.90
31695;DHT22;18289;51.330;4.946;2022-12-07T16:05:51;5.50;99.90
31695;DHT22;18289;51.330;4.946;2022-12-07T16:08:17;5.50;99.90
31695;DHT22;18289;51.330;4.946;2022-12-07T16:10:42;5.40;99.90
31695;DHT22;18289;51.330;4.946;2022-12-07T16:13:09;5.40;99.90
31695;DHT22;18289;51.330;4.946;2022-12-07T16:15:42;5.50;99.90
31695;DHT22;18289;51.330;4.946;2022-12-07T16:18:08;5.40;99.90
31695;DHT22;18289;51.330;4.946;2022-12-07T16:20:34;5.30;99.90
31695;DHT22;18289;51.330;4.946;2022-12-07T16:23:00;5.20;99.90
31695;DHT22;18289;51.330;4.946;2022-12-07T16:25:26;5.20;99.90
31695;DHT22;18289;51.330;4.946;2022-12-07T16:27:52;5.10;99.90
31695;DHT22;18289;51.330;4.946;2022-12-07T16:30:18;5.10;99.90
31695;DHT22;18289;51.330;4.946;2022-12-07T16:32:44;5.10;99.90
31695;DHT22;18289;51.330;4.946;2022-12-07T16:35:10;5.00;99.90
31695;DHT22;18289;51.330;4.946;2022-12-07T16:37:37;5.00;99.90
31695;DHT22;18289;51.330;4.946;2022-12-07T16:40:03;5.10;99.90
31695;DHT22;18289;51.330;4.946;2022-12-07T16:42:33;5.10;99.90
31695;DHT22;18289;51.330;4.946;2022-12-07T16:45:00;5.10;99.90
31695;DHT22;18289;51.330;4.946;2022-12-07T16:47:26;5.30;99.90
31695;DHT22;18289;51.330;4.946;2022-12-07T16:49:51;5.30;99.90
31695;DHT22;18289;51.330;4.946;2022-12-07T16:52:18;5.40;99.90
31695;DHT22;18289;51.330;4.946;2022-12-07T16:54:45;5.50;99.90
31695;DHT22;18289;51.330;4.946;2022-12-07T16:57:10;5.50;99.90
31695;DHT22;18289;51.330;4.946;2022-12-07T16:59:36;5.50;99.90
31695;DHT22;18289;51.330;4.946;2022-12-07T17:02:02;5.60;99.90
31695;DHT22;18289;51.330;4.946;2022-12-07T17:04:29;5.60;99.90
31695;DHT22;18289;51.330;4.946;2022-12-07T17:06:54;5.50;99.90
31695;DHT22;18289;51.330;4.946;2022-12-07T17:09:20;5.60;99.90
31695;DHT22;18289;51.330;4.946;2022-12-07T17:11:46;5.60;99.90
31695;DHT22;18289;51.330;4.946;2022-12-07T17:14:11;5.60;99.90
31695;DHT22;18289;51.330;4.946;2022-12-07T17:16:56;5.60;99.90
31695;DHT22;18289;51.330;4.946;2022-12-07T17:19:21;5.60;99.90
31695;DHT22;18289;51.330;4.946;2022-12-07T17:21:47;5.50;99.90
31695;DHT22;18289;51.330;4.946;2022-12-07T17:24:15;5.50;99.90
31695;DHT22;18289;51.330;4.946;2022-12-07T17:26:43;5.40;99.90
31695;DHT22;18289;51.330;4.946;2022-12-07T17:29:12;5.40;99.90
31695;DHT22;18289;51.330;4.946;2022-12-07T17:31:38;5.50;99.90
31695;DHT22;18289;51.330;4.946;2022-12-07T17:34:12;5.40;99.90
31695;DHT22;18289;51.330;4.946;2022-12-07T17:36:38;5.40;99.90
31695;DHT22;18289;51.330;4.946;2022-12-07T17:39:08;5.50;99.90
31695;DHT22;18289;51.330;4.946;2022-12-07T17:41:35;5.50;99.90
31695;DHT22;18289;51.330;4.946;2022-12-07T17:44:20;5.40;99.90
31695;DHT22;18289;51.330;4.946;2022-12-07T17:46:48;5.40;99.90
31695;DHT22;18289;51.330;4.946;2022-12-07T17:49:14;5.40;99.90
31695;DHT22;18289;51.330;4.946;2022-12-07T17:51:40;5.40;99.90
31695;DHT22;18289;51.330;4.946;2022-12-07T17:54:24;5.40;99.90
31695;DHT22;18289;51.330;4.946;2022-12-07T17:56:50;5.40;99.90
31695;DHT22;18289;51.330;4.946;2022-12-07T17:59:17;5.50;99.90
31695;DHT22;18289;51.330;4.946;2022-12-07T18:01:43;5.50;99.90
31695;DHT22;18289;51.330;4.946;2022-12-07T18:04:09;5.50;99.90
31695;DHT22;18289;51.330;4.946;2022-12-07T18:06:35;5.60;99.90
31695;DHT22;18289;51.330;4.946;2022-12-07T18:09:02;5.60;99.90
31695;DHT22;18289;51.330;4.946;2022-12-07T18:11:28;5.50;99.90
31695;DHT22;18289;51.330;4.946;2022-12-07T18:13:54;5.50;99.90
31695;DHT22;18289;51.330;4.946;2022-12-07T18:16:22;5.50;99.90
31695;DHT22;18289;51.330;4.946;2022-12-07T18:18:49;5.50;99.90
31695;DHT22;18289;51.330;4.946;2022-12-07T18:21:21;5.50;99.90
31695;DHT22;18289;51.330;4.946;2022-12-07T18:23:48;5.50;99.90
31695;DHT22;18289;51.330;4.946;2022-12-07T18:26:15;5.40;99.90